sensor_id;sensor_type;location;lat;lon;timestamp;pressure;altitude;pressure_sealevel;temperature
72236;BMP280;60146;52.498;13.462;2023-04-24T00:01:26;100081.78;;;13.67
72236;BMP280;60146;52.498;13.462;2023-04-24T00:03:51;100074.50;;;13.64
72236;BMP280;60146;52.498;13.462;2023-04-24T00:06:17;100069.41;;;13.67
72236;BMP280;60146;52.498;13.462;2023-04-24T00:08:42;100058.41;;;13.65
72236;BMP280;60146;52.498;13.462;2023-04-24T00:11:08;100066.50;;;13.60
72236;BMP280;60146;52.498;13.462;2023-04-24T00:13:34;100063.69;;;13.57
72236;BMP280;60146;52.498;13.462;2023-04-24T00:16:00;100058.88;;;13.59
72236;BMP280;60146;52.498;13.462;2023-04-24T00:18:25;100060.59;;;13.55
72236;BMP280;60146;52.498;13.462;2023-04-24T00:20:51;100052.56;;;13.52
72236;BMP280;60146;52.498;13.462;2023-04-24T00:23:16;100050.53;;;13.49
72236;BMP280;60146;52.498;13.462;2023-04-24T00:25:41;100053.66;;;13.51
72236;BMP280;60146;52.498;13.462;2023-04-24T00:28:07;100050.72;;;13.44
72236;BMP280;60146;52.498;13.462;2023-04-24T00:30:32;100046.53;;;13.43
72236;BMP280;60146;52.498;13.462;2023-04-24T00:32:58;100038.03;;;13.37
72236;BMP280;60146;52.498;13.462;2023-04-24T00:35:23;100037.88;;;13.34
72236;BMP280;60146;52.498;13.462;2023-04-24T00:37:48;100029.22;;;13.34
72236;BMP280;60146;52.498;13.462;2023-04-24T00:40:14;100045.47;;;13.36
72236;BMP280;60146;52.498;13.462;2023-04-24T00:42:40;100034.03;;;13.32
72236;BMP280;60146;52.498;13.462;2023-04-24T00:45:06;100021.31;;;13.34
72236;BMP280;60146;52.498;13.462;2023-04-24T00:47:33;100021.47;;;13.29
72236;BMP280;60146;52.498;13.462;2023-04-24T00:49:58;100024.56;;;13.31
72236;BMP280;60146;52.498;13.462;2023-04-24T00:52:34;100018.84;;;13.29
72236;BMP280;60146;52.498;13.462;2023-04-24T00:55:00;100027.69;;;13.33
72236;BMP280;60146;52.498;13.462;2023-04-24T00:57:26;100018.41;;;13.27
72236;BMP280;60146;52.498;13.462;2023-04-24T00:59:52;100005.09;;;13.23
72236;BMP280;60146;52.498;13.462;2023-04-24T01:02:18;100009.72;;;13.18
72236;BMP280;60146;52.498;13.462;2023-04-24T01:04:44;99999.50;;;13.17
72236;BMP280;60146;52.498;13.462;2023-04-24T01:07:10;100004.16;;;13.11
72236;BMP280;60146;52.498;13.462;2023-04-24T01:09:40;100004.94;;;13.12
72236;BMP280;60146;52.498;13.462;2023-04-24T01:12:07;100011.47;;;13.14
72236;BMP280;60146;52.498;13.462;2023-04-24T01:14:33;100017.31;;;13.11
72236;BMP280;60146;52.498;13.462;2023-04-24T01:16:58;100016.25;;;13.12
72236;BMP280;60146;52.498;13.462;2023-04-24T01:19:24;100017.94;;;13.17
72236;BMP280;60146;52.498;13.462;2023-04-24T01:21:50;100017.63;;;13.18
72236;BMP280;60146;52.498;13.462;2023-04-24T01:24:18;100010.81;;;13.17
72236;BMP280;60146;52.498;13.462;2023-04-24T01:26:44;100013.91;;;13.11
72236;BMP280;60146;52.498;13.462;2023-04-24T01:29:10;100014.88;;;13.15
72236;BMP280;60146;52.498;13.462;2023-04-24T01:31:36;100008.97;;;13.09
72236;BMP280;60146;52.498;13.462;2023-04-24T01:34:02;100010.69;;;13.05
72236;BMP280;60146;52.498;13.462;2023-04-24T01:36:28;100002.78;;;13.05
72236;BMP280;60146;52.498;13.462;2023-04-24T01:38:54;100011.75;;;13.04
72236;BMP280;60146;52.498;13.462;2023-04-24T01:41:20;99993.03;;;13.06
72236;BMP280;60146;52.498;13.462;2023-04-24T01:43:46;99999.66;;;13.12
72236;BMP280;60146;52.498;13.462;2023-04-24T01:46:11;100001.72;;;13.06
72236;BMP280;60146;52.498;13.462;2023-04-24T01:48:36;99995.38;;;13.07
72236;BMP280;60146;52.498;13.462;2023-04-24T01:51:02;99988.44;;;13.03
72236;BMP280;60146;52.498;13.462;2023-04-24T01:53:31;99994.59;;;13.07
72236;BMP280;60146;52.498;13.462;2023-04-24T01:55:58;99984.69;;;13.12
72236;BMP280;60146;52.498;13.462;2023-04-24T01:58:27;99985.75;;;13.11
72236;BMP280;60146;52.498;13.462;2023-04-24T02:00:56;99981.13;;;13.08
72236;BMP280;60146;52.498;13.462;2023-04-24T02:03:27;99980.66;;;13.06
72236;BMP280;60146;52.498;13.462;2023-04-24T02:05:55;99979.59;;;13.07
72236;BMP280;60146;52.498;13.462;2023-04-24T02:08:21;99977.41;;;13.09
72236;BMP280;60146;52.498;13.462;2023-04-24T02:10:49;99983.00;;;13.08
72236;BMP280;60146;52.498;13.462;2023-04-24T02:17:19;99959.94;;;13.13
72236;BMP280;60146;52.498;13.462;2023-04-24T02:20:15;99968.91;;;13.12
72236;BMP280;60146;52.498;13.462;2023-04-24T02:22:48;99957.13;;;13.18
72236;BMP280;60146;52.498;13.462;2023-04-24T02:25:14;99961.13;;;13.24
72236;BMP280;60146;52.498;13.462;2023-04-24T02:27:40;99956.03;;;13.19
72236;BMP280;60146;52.498;13.462;2023-04-24T02:30:06;99969.38;;;13.14
72236;BMP280;60146;52.498;13.462;2023-04-24T02:32:32;99964.53;;;13.16
72236;BMP280;60146;52.498;13.462;2023-04-24T02:34:59;99964.09;;;13.14
72236;BMP280;60146;52.498;13.462;2023-04-24T02:41:22;99960.50;;;13.27
72236;BMP280;60146;52.498;13.462;2023-04-24T02:44:22;99969.31;;;13.31
72236;BMP280;60146;52.498;13.462;2023-04-24T02:46:59;99957.41;;;13.25
72236;BMP280;60146;52.498;13.462;2023-04-24T02:49:25;99960.50;;;13.27
72236;BMP280;60146;52.498;13.462;2023-04-24T02:51:51;99956.75;;;13.28
72236;BMP280;60146;52.498;13.462;2023-04-24T02:54:16;99962.81;;;13.28
72236;BMP280;60146;52.498;13.462;2023-04-24T02:56:41;99950.75;;;13.27
72236;BMP280;60146;52.498;13.462;2023-04-24T02:59:07;99959.84;;;13.30
72236;BMP280;60146;52.498;13.462;2023-04-24T03:01:33;99957.09;;;13.26
72236;BMP280;60146;52.498;13.462;2023-04-24T03:03:59;99959.09;;;13.29
72236;BMP280;60146;52.498;13.462;2023-04-24T03:06:24;99950.41;;;13.29
72236;BMP280;60146;52.498;13.462;2023-04-24T03:08:50;99955.97;;;13.36
72236;BMP280;60146;52.498;13.462;2023-04-24T03:11:15;99948.84;;;13.36
72236;BMP280;60146;52.498;13.462;2023-04-24T03:13:40;99957.22;;;13.38
72236;BMP280;60146;52.498;13.462;2023-04-24T03:16:06;99961.72;;;13.37
72236;BMP280;60146;52.498;13.462;2023-04-24T03:18:31;99956.41;;;13.46
72236;BMP280;60146;52.498;13.462;2023-04-24T03:20:56;99971.88;;;13.47
72236;BMP280;60146;52.498;13.462;2023-04-24T03:23:22;99963.69;;;13.49
72236;BMP280;60146;52.498;13.462;2023-04-24T03:25:47;99978.53;;;13.53
72236;BMP280;60146;52.498;13.462;2023-04-24T03:28:13;99967.81;;;13.58
72236;BMP280;60146;52.498;13.462;2023-04-24T03:30:39;99963.16;;;13.63
72236;BMP280;60146;52.498;13.462;2023-04-24T03:33:05;99965.31;;;13.70
72236;BMP280;60146;52.498;13.462;2023-04-24T03:35:30;99952.41;;;13.76
72236;BMP280;60146;52.498;13.462;2023-04-24T03:37:56;99954.09;;;13.81
72236;BMP280;60146;52.498;13.462;2023-04-24T03:40:21;99956.41;;;13.82
72236;BMP280;60146;52.498;13.462;2023-04-24T03:42:47;99955.59;;;13.90
72236;BMP280;60146;52.498;13.462;2023-04-24T03:45:12;99965.81;;;13.92
72236;BMP280;60146;52.498;13.462;2023-04-24T03:47:37;99961.31;;;13.92
72236;BMP280;60146;52.498;13.462;2023-04-24T03:50:03;99957.00;;;13.88
72236;BMP280;60146;52.498;13.462;2023-04-24T03:52:28;99965.81;;;13.92
72236;BMP280;60146;52.498;13.462;2023-04-24T03:54:54;99969.66;;;13.94
72236;BMP280;60146;52.498;13.462;2023-04-24T03:57:20;99961.44;;;13.96
72236;BMP280;60146;52.498;13.462;2023-04-24T03:59:46;99958.91;;;14.07
72236;BMP280;60146;52.498;13.462;2023-04-24T04:02:11;99966.00;;;14.15
72236;BMP280;60146;52.498;13.462;2023-04-24T04:04:36;99967.91;;;14.06
72236;BMP280;60146;52.498;13.462;2023-04-24T04:07:02;99963.41;;;14.07
72236;BMP280;60146;52.498;13.462;2023-04-24T04:09:28;99960.72;;;14.15
72236;BMP280;60146;52.498;13.462;2023-04-24T04:11:54;99959.00;;;14.19
72236;BMP280;60146;52.498;13.462;2023-04-24T04:14:19;99949.41;;;14.15
72236;BMP280;60146;52.498;13.462;2023-04-24T04:16:44;99952.19;;;14.18
72236;BMP280;60146;52.498;13.462;2023-04-24T04:19:10;99954.50;;;14.19
72236;BMP280;60146;52.498;13.462;2023-04-24T04:21:35;99954.56;;;14.31
72236;BMP280;60146;52.498;13.462;2023-04-24T04:24:00;99951.50;;;14.21
72236;BMP280;60146;52.498;13.462;2023-04-24T04:26:26;99956.28;;;14.27
72236;BMP280;60146;52.498;13.462;2023-04-24T04:28:52;99947.59;;;14.27
72236;BMP280;60146;52.498;13.462;2023-04-24T04:31:19;99950.59;;;14.25
72236;BMP280;60146;52.498;13.462;2023-04-24T04:33:45;99949.47;;;14.26
72236;BMP280;60146;52.498;13.462;2023-04-24T04:36:10;99952.56;;;14.28
72236;BMP280;60146;52.498;13.462;2023-04-24T04:38:37;99956.28;;;14.27
72236;BMP280;60146;52.498;13.462;2023-04-24T04:41:02;99948.03;;;14.37
72236;BMP280;60146;52.498;13.462;2023-04-24T04:43:28;99955.47;;;14.35
72236;BMP280;60146;52.498;13.462;2023-04-24T04:45:53;99959.50;;;14.33
72236;BMP280;60146;52.498;13.462;2023-04-24T04:48:19;99959.06;;;14.31
72236;BMP280;60146;52.498;13.462;2023-04-24T04:50:45;99970.63;;;14.38
72236;BMP280;60146;52.498;13.462;2023-04-24T04:53:10;99974.38;;;14.37
72236;BMP280;60146;52.498;13.462;2023-04-24T04:55:36;99972.56;;;14.29
72236;BMP280;60146;52.498;13.462;2023-04-24T04:58:02;99977.00;;;14.37
72236;BMP280;60146;52.498;13.462;2023-04-24T05:00:27;99982.00;;;14.30
72236;BMP280;60146;52.498;13.462;2023-04-24T05:02:54;99977.63;;;14.34
72236;BMP280;60146;52.498;13.462;2023-04-24T05:05:19;99973.25;;;14.38
72236;BMP280;60146;52.498;13.462;2023-04-24T05:07:45;99974.50;;;14.40
72236;BMP280;60146;52.498;13.462;2023-04-24T05:10:10;99975.69;;;14.43
72236;BMP280;60146;52.498;13.462;2023-04-24T05:12:36;99974.00;;;14.47
72236;BMP280;60146;52.498;13.462;2023-04-24T05:15:02;99973.31;;;14.50
72236;BMP280;60146;52.498;13.462;2023-04-24T05:17:28;99981.56;;;14.48
72236;BMP280;60146;52.498;13.462;2023-04-24T05:19:53;99981.38;;;14.53
72236;BMP280;60146;52.498;13.462;2023-04-24T05:22:19;99978.41;;;14.55
72236;BMP280;60146;52.498;13.462;2023-04-24T05:24:46;99972.22;;;14.51
72236;BMP280;60146;52.498;13.462;2023-04-24T05:27:11;99977.03;;;14.49
72236;BMP280;60146;52.498;13.462;2023-04-24T05:29:37;99975.47;;;14.56
72236;BMP280;60146;52.498;13.462;2023-04-24T05:32:02;99976.91;;;14.54
72236;BMP280;60146;52.498;13.462;2023-04-24T05:34:28;99988.97;;;14.55
72236;BMP280;60146;52.498;13.462;2023-04-24T05:36:53;99990.88;;;14.66
72236;BMP280;60146;52.498;13.462;2023-04-24T05:39:19;99987.66;;;14.60
72236;BMP280;60146;52.498;13.462;2023-04-24T05:41:45;99972.50;;;14.57
72236;BMP280;60146;52.498;13.462;2023-04-24T05:44:10;99972.56;;;14.69
72236;BMP280;60146;52.498;13.462;2023-04-24T05:46:36;99980.88;;;14.71
72236;BMP280;60146;52.498;13.462;2023-04-24T05:49:01;99990.88;;;14.66
72236;BMP280;60146;52.498;13.462;2023-04-24T05:51:27;99981.25;;;14.70
72236;BMP280;60146;52.498;13.462;2023-04-24T05:53:53;99979.66;;;14.89
72236;BMP280;60146;52.498;13.462;2023-04-24T05:56:18;99977.47;;;14.91
72236;BMP280;60146;52.498;13.462;2023-04-24T05:58:45;99979.34;;;14.90
72236;BMP280;60146;52.498;13.462;2023-04-24T06:01:11;99977.53;;;15.02
72236;BMP280;60146;52.498;13.462;2023-04-24T06:03:38;99986.00;;;15.08
72236;BMP280;60146;52.498;13.462;2023-04-24T06:06:05;99990.88;;;14.97
72236;BMP280;60146;52.498;13.462;2023-04-24T06:08:31;99986.31;;;15.06
72236;BMP280;60146;52.498;13.462;2023-04-24T06:10:56;99987.25;;;15.22
72236;BMP280;60146;52.498;13.462;2023-04-24T06:13:22;99996.63;;;15.31
72236;BMP280;60146;52.498;13.462;2023-04-24T06:15:47;99995.59;;;15.24
72236;BMP280;60146;52.498;13.462;2023-04-24T06:18:13;99990.75;;;15.26
72236;BMP280;60146;52.498;13.462;2023-04-24T06:20:38;99999.78;;;15.25
72236;BMP280;60146;52.498;13.462;2023-04-24T06:23:04;100003.88;;;15.34
72236;BMP280;60146;52.498;13.462;2023-04-24T06:25:29;99997.16;;;15.36
72236;BMP280;60146;52.498;13.462;2023-04-24T06:27:55;100005.34;;;15.43
72236;BMP280;60146;52.498;13.462;2023-04-24T06:30:22;99993.41;;;15.37
72236;BMP280;60146;52.498;13.462;2023-04-24T06:32:47;100004.88;;;15.41
72236;BMP280;60146;52.498;13.462;2023-04-24T06:35:12;99992.09;;;15.32
72236;BMP280;60146;52.498;13.462;2023-04-24T06:37:42;100012.81;;;15.41
72236;BMP280;60146;52.498;13.462;2023-04-24T06:40:08;100010.84;;;15.50
72236;BMP280;60146;52.498;13.462;2023-04-24T06:42:33;100007.44;;;15.73
72236;BMP280;60146;52.498;13.462;2023-04-24T06:45:00;100011.97;;;15.96
72236;BMP280;60146;52.498;13.462;2023-04-24T06:47:25;100012.41;;;15.86
72236;BMP280;60146;52.498;13.462;2023-04-24T06:49:51;100010.63;;;16.02
72236;BMP280;60146;52.498;13.462;2023-04-24T06:52:18;100001.56;;;16.26
72236;BMP280;60146;52.498;13.462;2023-04-24T06:54:43;99993.69;;;16.41
72236;BMP280;60146;52.498;13.462;2023-04-24T06:57:08;99998.56;;;16.66
72236;BMP280;60146;52.498;13.462;2023-04-24T06:59:35;99985.34;;;16.66
72236;BMP280;60146;52.498;13.462;2023-04-24T07:02:00;99994.78;;;16.52
72236;BMP280;60146;52.498;13.462;2023-04-24T07:04:26;99990.44;;;16.59
72236;BMP280;60146;52.498;13.462;2023-04-24T07:06:51;99994.81;;;16.67
72236;BMP280;60146;52.498;13.462;2023-04-24T07:09:19;99983.13;;;16.68
72236;BMP280;60146;52.498;13.462;2023-04-24T07:11:45;99984.31;;;16.82
72236;BMP280;60146;52.498;13.462;2023-04-24T07:14:11;99985.91;;;16.87
72236;BMP280;60146;52.498;13.462;2023-04-24T07:16:36;99989.06;;;16.77
72236;BMP280;60146;52.498;13.462;2023-04-24T07:19:01;99983.09;;;16.80
72236;BMP280;60146;52.498;13.462;2023-04-24T07:21:27;99978.41;;;17.04
72236;BMP280;60146;52.498;13.462;2023-04-24T07:23:52;99979.72;;;17.25
72236;BMP280;60146;52.498;13.462;2023-04-24T07:26:19;99979.91;;;17.46
72236;BMP280;60146;52.498;13.462;2023-04-24T07:28:45;99982.88;;;17.45
72236;BMP280;60146;52.498;13.462;2023-04-24T07:31:11;99984.53;;;17.19
72236;BMP280;60146;52.498;13.462;2023-04-24T07:33:37;99988.25;;;17.48
72236;BMP280;60146;52.498;13.462;2023-04-24T07:36:02;99986.31;;;17.61
72236;BMP280;60146;52.498;13.462;2023-04-24T07:38:31;99982.88;;;17.75
72236;BMP280;60146;52.498;13.462;2023-04-24T07:40:56;99987.25;;;18.02
72236;BMP280;60146;52.498;13.462;2023-04-24T07:43:22;99990.59;;;18.17
72236;BMP280;60146;52.498;13.462;2023-04-24T07:45:51;99988.78;;;18.02
72236;BMP280;60146;52.498;13.462;2023-04-24T07:48:17;99976.69;;;17.71
72236;BMP280;60146;52.498;13.462;2023-04-24T07:50:43;99986.97;;;17.58
72236;BMP280;60146;52.498;13.462;2023-04-24T07:53:09;99971.81;;;17.73
72236;BMP280;60146;52.498;13.462;2023-04-24T07:55:35;99973.38;;;17.74
72236;BMP280;60146;52.498;13.462;2023-04-24T07:58:00;99973.06;;;17.94
72236;BMP280;60146;52.498;13.462;2023-04-24T08:00:26;99977.63;;;18.12
72236;BMP280;60146;52.498;13.462;2023-04-24T08:02:51;99970.69;;;18.41
72236;BMP280;60146;52.498;13.462;2023-04-24T08:05:16;99974.41;;;18.77
72236;BMP280;60146;52.498;13.462;2023-04-24T08:07:42;99976.81;;;18.86
72236;BMP280;60146;52.498;13.462;2023-04-24T08:10:10;99971.19;;;19.09
72236;BMP280;60146;52.498;13.462;2023-04-24T08:12:36;99962.00;;;19.07
72236;BMP280;60146;52.498;13.462;2023-04-24T08:15:02;99963.22;;;19.34
72236;BMP280;60146;52.498;13.462;2023-04-24T08:17:27;99963.47;;;19.52
72236;BMP280;60146;52.498;13.462;2023-04-24T08:19:52;99988.22;;;19.30
72236;BMP280;60146;52.498;13.462;2023-04-24T08:22:24;99977.16;;;19.50
72236;BMP280;60146;52.498;13.462;2023-04-24T08:24:49;99977.69;;;19.37
72236;BMP280;60146;52.498;13.462;2023-04-24T08:27:15;99969.22;;;19.79
72236;BMP280;60146;52.498;13.462;2023-04-24T08:29:40;99966.28;;;19.87
72236;BMP280;60146;52.498;13.462;2023-04-24T08:32:05;99974.09;;;20.70
72236;BMP280;60146;52.498;13.462;2023-04-24T08:34:31;99965.22;;;20.95
72236;BMP280;60146;52.498;13.462;2023-04-24T08:36:56;99970.47;;;20.84
72236;BMP280;60146;52.498;13.462;2023-04-24T08:39:22;99966.78;;;20.60
72236;BMP280;60146;52.498;13.462;2023-04-24T08:41:48;99966.09;;;21.12
72236;BMP280;60146;52.498;13.462;2023-04-24T08:44:13;99964.06;;;21.48
72236;BMP280;60146;52.498;13.462;2023-04-24T08:46:42;99970.91;;;21.42
72236;BMP280;60146;52.498;13.462;2023-04-24T08:49:08;99950.53;;;21.87
72236;BMP280;60146;52.498;13.462;2023-04-24T08:51:33;99957.59;;;22.29
72236;BMP280;60146;52.498;13.462;2023-04-24T08:54:00;99960.66;;;22.58
72236;BMP280;60146;52.498;13.462;2023-04-24T08:56:26;99972.53;;;23.15
72236;BMP280;60146;52.498;13.462;2023-04-24T08:58:53;99960.66;;;23.40
72236;BMP280;60146;52.498;13.462;2023-04-24T09:01:24;99974.41;;;23.28
72236;BMP280;60146;52.498;13.462;2023-04-24T09:03:50;99958.59;;;21.91
72236;BMP280;60146;52.498;13.462;2023-04-24T09:06:17;99953.44;;;22.45
72236;BMP280;60146;52.498;13.462;2023-04-24T09:08:45;99962.56;;;22.47
72236;BMP280;60146;52.498;13.462;2023-04-24T09:11:11;99974.97;;;21.82
72236;BMP280;60146;52.498;13.462;2023-04-24T09:13:37;99963.22;;;22.00
72236;BMP280;60146;52.498;13.462;2023-04-24T09:16:02;99976.81;;;21.75
72236;BMP280;60146;52.498;13.462;2023-04-24T09:18:28;99985.25;;;21.28
72236;BMP280;60146;52.498;13.462;2023-04-24T09:21:07;99974.75;;;20.60
72236;BMP280;60146;52.498;13.462;2023-04-24T09:23:32;99985.13;;;20.36
72236;BMP280;60146;52.498;13.462;2023-04-24T09:25:59;99980.16;;;19.99
72236;BMP280;60146;52.498;13.462;2023-04-24T09:31:21;99982.41;;;19.47
72236;BMP280;60146;52.498;13.462;2023-04-24T09:36:19;99986.97;;;19.46
72236;BMP280;60146;52.498;13.462;2023-04-24T09:38:44;99985.47;;;19.49
72236;BMP280;60146;52.498;13.462;2023-04-24T09:41:13;99988.41;;;18.97
72236;BMP280;60146;52.498;13.462;2023-04-24T09:43:38;99996.47;;;19.03
72236;BMP280;60146;52.498;13.462;2023-04-24T09:46:06;99990.75;;;19.01
72236;BMP280;60146;52.498;13.462;2023-04-24T09:48:36;99995.88;;;18.91
72236;BMP280;60146;52.498;13.462;2023-04-24T09:51:02;100011.66;;;19.03
72236;BMP280;60146;52.498;13.462;2023-04-24T09:53:29;99994.41;;;18.94
72236;BMP280;60146;52.498;13.462;2023-04-24T09:55:55;99994.78;;;19.36
72236;BMP280;60146;52.498;13.462;2023-04-24T09:58:28;99988.75;;;19.64
72236;BMP280;60146;52.498;13.462;2023-04-24T10:00:55;99984.31;;;20.00
72236;BMP280;60146;52.498;13.462;2023-04-24T10:03:21;99974.97;;;20.45
72236;BMP280;60146;52.498;13.462;2023-04-24T10:05:48;99973.16;;;20.91
72236;BMP280;60146;52.498;13.462;2023-04-24T10:08:14;99975.28;;;21.18
72236;BMP280;60146;52.498;13.462;2023-04-24T10:10:45;99991.81;;;20.91
72236;BMP280;60146;52.498;13.462;2023-04-24T10:13:12;99967.81;;;20.52
72236;BMP280;60146;52.498;13.462;2023-04-24T10:15:38;99977.63;;;21.23
72236;BMP280;60146;52.498;13.462;2023-04-24T10:18:05;99975.88;;;21.44
72236;BMP280;60146;52.498;13.462;2023-04-24T10:20:32;99977.09;;;21.56
72236;BMP280;60146;52.498;13.462;2023-04-24T10:22:58;99964.28;;;21.82
72236;BMP280;60146;52.498;13.462;2023-04-24T10:25:29;99974.19;;;21.82
72236;BMP280;60146;52.498;13.462;2023-04-24T10:27:56;99974.97;;;21.82
72236;BMP280;60146;52.498;13.462;2023-04-24T10:30:29;99981.22;;;22.27
72236;BMP280;60146;52.498;13.462;2023-04-24T10:32:55;99969.25;;;21.91
72236;BMP280;60146;52.498;13.462;2023-04-24T10:35:22;99973.44;;;21.81
72236;BMP280;60146;52.498;13.462;2023-04-24T10:40:19;99972.94;;;22.93
72236;BMP280;60146;52.498;13.462;2023-04-24T10:42:51;99962.97;;;22.46
72236;BMP280;60146;52.498;13.462;2023-04-24T10:45:21;99966.44;;;21.56
72236;BMP280;60146;52.498;13.462;2023-04-24T10:48:01;99963.84;;;21.14
72236;BMP280;60146;52.498;13.462;2023-04-24T10:50:28;99976.13;;;20.15
72236;BMP280;60146;52.498;13.462;2023-04-24T10:53:05;99985.25;;;19.86
72236;BMP280;60146;52.498;13.462;2023-04-24T10:55:50;99981.38;;;19.29
72236;BMP280;60146;52.498;13.462;2023-04-24T10:58:21;99975.66;;;19.31
72236;BMP280;60146;52.498;13.462;2023-04-24T11:00:59;99969.94;;;19.25
72236;BMP280;60146;52.498;13.462;2023-04-24T11:03:29;99964.94;;;19.46
72236;BMP280;60146;52.498;13.462;2023-04-24T11:05:56;99954.09;;;19.83
72236;BMP280;60146;52.498;13.462;2023-04-24T11:08:24;99957.16;;;20.17
72236;BMP280;60146;52.498;13.462;2023-04-24T11:11:17;99954.03;;;20.44
72236;BMP280;60146;52.498;13.462;2023-04-24T11:16:29;99955.69;;;24.75
72236;BMP280;60146;52.498;13.462;2023-04-24T11:21:45;99941.56;;;26.72
72236;BMP280;60146;52.498;13.462;2023-04-24T11:24:25;99942.56;;;25.27
72236;BMP280;60146;52.498;13.462;2023-04-24T11:29:38;99944.66;;;22.45
72236;BMP280;60146;52.498;13.462;2023-04-24T11:35:01;99952.78;;;20.70
72236;BMP280;60146;52.498;13.462;2023-04-24T11:37:38;99978.41;;;20.13
72236;BMP280;60146;52.498;13.462;2023-04-24T11:40:05;100001.44;;;18.27
72236;BMP280;60146;52.498;13.462;2023-04-24T11:42:35;100008.88;;;17.25
72236;BMP280;60146;52.498;13.462;2023-04-24T11:45:01;100011.22;;;16.99
72236;BMP280;60146;52.498;13.462;2023-04-24T11:47:30;100003.13;;;17.23
72236;BMP280;60146;52.498;13.462;2023-04-24T11:49:58;100005.25;;;18.85
72236;BMP280;60146;52.498;13.462;2023-04-24T11:52:23;99994.59;;;21.57
72236;BMP280;60146;52.498;13.462;2023-04-24T11:54:49;99979.28;;;23.77
72236;BMP280;60146;52.498;13.462;2023-04-24T11:57:16;99981.63;;;25.60
72236;BMP280;60146;52.498;13.462;2023-04-24T11:59:41;99977.16;;;27.24
72236;BMP280;60146;52.498;13.462;2023-04-24T12:02:07;99967.63;;;28.39
72236;BMP280;60146;52.498;13.462;2023-04-24T12:04:39;99965.09;;;29.58
72236;BMP280;60146;52.498;13.462;2023-04-24T12:07:06;99957.91;;;29.00
72236;BMP280;60146;52.498;13.462;2023-04-24T12:09:46;99959.00;;;29.54
72236;BMP280;60146;52.498;13.462;2023-04-24T12:12:12;99950.47;;;30.50
72236;BMP280;60146;52.498;13.462;2023-04-24T12:14:47;99952.66;;;30.75
72236;BMP280;60146;52.498;13.462;2023-04-24T12:17:12;99956.00;;;30.79
72236;BMP280;60146;52.498;13.462;2023-04-24T12:19:45;99950.28;;;29.75
72236;BMP280;60146;52.498;13.462;2023-04-24T12:22:10;99959.00;;;28.75
72236;BMP280;60146;52.498;13.462;2023-04-24T12:24:55;99946.56;;;26.51
72236;BMP280;60146;52.498;13.462;2023-04-24T12:27:22;99937.25;;;27.88
72236;BMP280;60146;52.498;13.462;2023-04-24T12:29:56;99944.09;;;27.01
72236;BMP280;60146;52.498;13.462;2023-04-24T12:32:21;99934.56;;;26.07
72236;BMP280;60146;52.498;13.462;2023-04-24T12:34:47;99920.78;;;26.05
72236;BMP280;60146;52.498;13.462;2023-04-24T12:37:14;99933.06;;;26.06
72236;BMP280;60146;52.498;13.462;2023-04-24T12:39:46;99935.56;;;24.97
72236;BMP280;60146;52.498;13.462;2023-04-24T12:42:27;99923.38;;;24.46
72236;BMP280;60146;52.498;13.462;2023-04-24T12:44:56;99923.97;;;23.37
72236;BMP280;60146;52.498;13.462;2023-04-24T12:47:23;99933.16;;;23.33
72236;BMP280;60146;52.498;13.462;2023-04-24T12:49:49;99930.13;;;22.90
72236;BMP280;60146;52.498;13.462;2023-04-24T12:52:16;99933.75;;;21.80
72236;BMP280;60146;52.498;13.462;2023-04-24T12:57:08;99927.22;;;21.64
72236;BMP280;60146;52.498;13.462;2023-04-24T12:59:34;99943.41;;;21.32
72236;BMP280;60146;52.498;13.462;2023-04-24T13:01:59;99920.81;;;21.85
72236;BMP280;60146;52.498;13.462;2023-04-24T13:04:24;99923.13;;;21.90
72236;BMP280;60146;52.498;13.462;2023-04-24T13:06:50;99914.78;;;22.02
72236;BMP280;60146;52.498;13.462;2023-04-24T13:09:15;99930.09;;;23.31
72236;BMP280;60146;52.498;13.462;2023-04-24T13:11:40;99921.72;;;23.22
72236;BMP280;60146;52.498;13.462;2023-04-24T13:14:06;99918.63;;;22.11
72236;BMP280;60146;52.498;13.462;2023-04-24T13:16:31;99926.34;;;21.46
72236;BMP280;60146;52.498;13.462;2023-04-24T13:18:56;99915.59;;;22.33
72236;BMP280;60146;52.498;13.462;2023-04-24T13:21:22;99912.41;;;23.67
72236;BMP280;60146;52.498;13.462;2023-04-24T13:23:47;99912.13;;;24.64
72236;BMP280;60146;52.498;13.462;2023-04-24T13:26:12;99910.19;;;25.37
72236;BMP280;60146;52.498;13.462;2023-04-24T13:28:38;99922.59;;;25.24
72236;BMP280;60146;52.498;13.462;2023-04-24T13:31:03;99904.50;;;25.90
72236;BMP280;60146;52.498;13.462;2023-04-24T13:33:29;99907.34;;;24.39
72236;BMP280;60146;52.498;13.462;2023-04-24T13:35:54;99909.72;;;24.30
72236;BMP280;60146;52.498;13.462;2023-04-24T13:38:20;99913.41;;;25.25
72236;BMP280;60146;52.498;13.462;2023-04-24T13:40:46;99914.97;;;24.87
72236;BMP280;60146;52.498;13.462;2023-04-24T13:43:11;99907.97;;;24.07
72236;BMP280;60146;52.498;13.462;2023-04-24T13:45:37;99915.53;;;24.19
72236;BMP280;60146;52.498;13.462;2023-04-24T13:48:03;99899.75;;;24.31
72236;BMP280;60146;52.498;13.462;2023-04-24T13:50:28;99900.97;;;24.69
72236;BMP280;60146;52.498;13.462;2023-04-24T13:52:53;99921.94;;;24.81
72236;BMP280;60146;52.498;13.462;2023-04-24T13:55:19;99901.88;;;24.53
72236;BMP280;60146;52.498;13.462;2023-04-24T13:57:45;99907.81;;;24.74
72236;BMP280;60146;52.498;13.462;2023-04-24T14:00:11;99899.78;;;24.27
72236;BMP280;60146;52.498;13.462;2023-04-24T14:02:36;99909.66;;;25.16
72236;BMP280;60146;52.498;13.462;2023-04-24T14:05:02;99919.06;;;25.63
72236;BMP280;60146;52.498;13.462;2023-04-24T14:07:28;99909.38;;;25.98
72236;BMP280;60146;52.498;13.462;2023-04-24T14:09:54;99915.81;;;25.49
72236;BMP280;60146;52.498;13.462;2023-04-24T14:12:20;99902.44;;;25.13
72236;BMP280;60146;52.498;13.462;2023-04-24T14:14:46;99926.19;;;25.15
72236;BMP280;60146;52.498;13.462;2023-04-24T14:17:13;99913.03;;;25.27
72236;BMP280;60146;52.498;13.462;2023-04-24T14:19:39;99920.34;;;24.44
72236;BMP280;60146;52.498;13.462;2023-04-24T14:22:04;99903.94;;;23.72